KBBB/BBB METAR and TAF weather

Enter ICAO airport designator
Station Type Date Time Source
KBBB METAR 2022/06/30 14:16 UTC NOAA

KBBB 301416Z AUTO 24005KT 10SM CLR 25/18 A2979 RMK AO2


Station Type Date Time Source
KBBB Decoded METAR 2022/06/30 14:16 UTC NOAA

Benson Municipal, MN, United States (KBBB) 45-19N 095-39W
Jun 30, 2022 - 10:16 AM EDT / 2022.06.30 1416 UTC
Wind: from the WSW (240 degrees) at 6 MPH (5 KT):0
Visibility: 10 mile(s):0
Sky conditions: clear
Temperature: 77 F (25 C)
Dew Point: 64 F (18 C)
Relative Humidity: 65%
Pressure (altimeter): 29.79 in. Hg (1008 hPa)
ob: KBBB 301416Z AUTO 24005KT 10SM CLR 25/18 A2979 RMK AO2
cycle: 14

Station Type Date Time Source
KBBB TAF UTC NOAA

Error!

Example: see airport list